Latest Weather Observations for Gympie

IDQ60801

Issued at 9:12 pm EST Wednesday 14 November 2018 (issued every 10 minutes, with the page automatically refreshed every 10 minutes)

About weather observations | Map of weather stations | Latest weather observations for QLD | Other Formats
Station Details ID: 040093 Name: GYMPIE Lat: -26.18 Lon: 152.64 Height: 64.5 m
Data from the previous 72 hours. | See also: Recent months at Gympie
Date/Time
EST
Temp
°C
App
Temp
°C
Dew
Point
°C
Rel
Hum
%
Delta-T
°C
Wind Press
QNH
hPa
Press
MSL
hPa
Rain since
9am
mm
Dir  Spd
km/h
Gust
km/h
Spd
kts
Gust
kts
14/09:00pm 20.6 23.2 17.6 83 1.8 CALM 0 0 0 0 1018.2 1017.9 0.0
14/08:30pm 21.7 24.5 17.9 79 2.4 CALM 0 0 0 0 1018.1 1017.8 0.0
14/08:00pm 22.2 24.9 17.8 76 2.7 CALM 0 0 0 0 1018.1 1017.8 0.0
14/07:30pm 22.7 24.2 17.6 73 3.2 E 6 9 3 5 1017.8 1017.5 0.0
14/07:00pm 23.3 24.8 17.7 71 3.5 ENE 6 11 3 6 1017.7 1017.4 0.0
14/06:30pm 23.8 24.4 17.8 69 3.8 E 11 17 6 9 1017.4 1017.1 0.0
14/06:00pm 24.3 25.0 17.1 64 4.5 E 9 20 5 11 1017.1 1016.8 0.0
14/05:30pm 25.2 25.5 17.1 60 5.0 ESE 11 19 6 10 1016.6 1016.3 0.0
14/05:00pm 25.8 25.5 16.4 56 5.8 E 13 20 7 11 1016.2 1015.9 0.0
14/04:30pm 26.5 26.8 17.0 56 5.9 E 11 17 6 9 1015.9 1015.6 0.0
14/04:00pm 27.5 27.7 16.8 52 6.7 E 11 20 6 11 1015.6 1015.3 0.0
14/03:30pm 26.9 26.9 16.2 52 6.6 NE 11 20 6 11 1015.5 1015.2 0.0
14/03:00pm 28.5 29.1 16.7 48 7.4 ENE 9 19 5 10 1015.5 1015.2 0.0
14/02:30pm 27.8 28.4 17.6 53 6.5 E 11 20 6 11 1015.6 1015.3 0.0
14/02:00pm 28.0 27.9 17.8 54 6.5 ENE 15 26 8 14 1015.7 1015.4 0.0
14/01:30pm 29.2 30.0 17.4 49 7.5 E 9 15 5 8 1015.9 1015.6 0.0
14/01:00pm 29.0 29.8 17.2 49 7.4 E 9 20 5 11 1016.1 1015.8 0.0
14/12:30pm 27.6 28.3 16.2 49 7.1 ENE 7 15 4 8 1016.6 1016.3 0.0
14/12:00pm 27.5 28.6 16.5 51 6.8 ESE 6 13 3 7 1016.9 1016.6 0.0
14/11:30am 27.3 28.4 17.2 54 6.3 ESE 7 15 4 8 1017.3 1017.0 0.0
14/11:00am 27.0 27.8 16.3 52 6.6 E 7 13 4 7 1017.7 1017.4 0.0
14/10:30am 26.3 27.2 16.5 54 6.1 E 7 13 4 7 1017.9 1017.6 0.0
14/10:00am 27.2 28.6 17.4 55 6.2 ESE 6 19 3 10 1018.0 1017.7 0.0
14/09:30am 25.9 26.8 16.7 57 5.7 SSE 7 11 4 6 1018.1 1017.8 0.0
14/09:00am 25.7 27.0 17.1 59 5.4 SSE 6 11 3 6 1018.0 1017.7 0.0
14/08:30am 24.3 25.9 17.8 67 4.1 SE 6 9 3 5 1018.1 1017.8 0.0
14/08:00am 23.4 24.9 17.6 70 3.6 SSE 6 7 3 4 1018.1 1017.8 0.0
14/07:30am 22.3 24.0 17.2 73 3.1 SE 4 11 2 6 1018.1 1017.8 0.0
14/07:00am 20.2 22.3 16.2 78 2.4 CALM 0 0 0 0 1018.0 1017.7 0.0
14/06:30am 17.8 19.8 16.1 90 1.0 CALM 0 0 0 0 1017.9 1017.6 0.0
14/06:00am 16.4 18.3 15.8 96 0.4 CALM 0 0 0 0 1017.5 1017.2 0.0
14/05:30am 14.7 16.0 14.1 96 0.3 CALM 0 0 0 0 1017.2 1016.9 0.0
14/05:00am 14.5 15.8 14.2 98 0.2 CALM 0 0 0 0 1016.8 1016.5 0.0
14/04:30am 14.5 15.8 14.2 98 0.2 CALM 0 0 0 0 1016.6 1016.3 0.0
14/04:00am 14.7 16.1 14.4 98 0.2 CALM 0 0 0 0 1016.4 1016.1 0.0
14/03:30am 14.3 15.5 13.7 96 0.3 CALM 0 0 0 0 1016.1 1015.8 0.0
14/03:00am 14.4 15.6 13.8 96 0.3 CALM 0 0 0 0 1016.1 1015.8 0.0
14/02:30am 15.2 16.7 14.6 96 0.3 CALM 0 0 0 0 1016.4 1016.1 0.0
14/02:00am 14.9 16.2 14.1 95 0.5 CALM 0 0 0 0 1016.3 1016.0 0.0
14/01:30am 14.9 16.2 14.1 95 0.5 CALM 0 0 0 0 1016.6 1016.3 0.0
14/01:00am 14.8 16.0 13.7 93 0.6 CALM 0 0 0 0 1016.8 1016.5 0.0
14/12:30am 15.5 17.0 14.7 95 0.5 CALM 0 0 0 0 1017.3 1017.0 0.0
14/12:00am 15.2 16.6 14.4 95 0.5 CALM 0 0 0 0 1017.6 1017.3 0.0
 
Date/Time
EST
Temp
°C
App
Temp
°C
Dew
Point
°C
Rel
Hum
%
Delta-T
°C
Wind Press
QNH
hPa
Press
MSL
hPa
Rain since
9am
mm
Dir  Spd
km/h
Gust
km/h
Spd
kts
Gust
kts
13/11:30pm 15.4 16.8 14.4 94 0.6 CALM 0 0 0 0 1017.8 1017.5 0.0
13/11:00pm 15.7 17.1 14.4 92 0.7 CALM 0 0 0 0 1018.1 1017.8 0.0
13/10:30pm 16.4 17.8 14.4 88 1.1 CALM 0 0 0 0 1018.2 1017.9 0.0
13/10:00pm 17.1 18.6 14.7 86 1.4 CALM 0 0 0 0 1018.4 1018.1 0.0
13/09:30pm 17.8 19.5 15.1 84 1.6 CALM 0 0 0 0 1018.4 1018.1 0.0
13/09:00pm 18.2 19.6 15.3 83 1.7 SSE 2 4 1 2 1018.4 1018.1 0.0
13/08:30pm 18.7 20.5 15.6 82 1.8 CALM 0 0 0 0 1018.1 1017.8 0.0
13/08:00pm 18.5 19.1 15.4 82 1.8 S 6 7 3 4 1018.0 1017.7 0.0
13/07:30pm 19.2 20.3 15.7 80 2.1 SE 4 7 2 4 1017.8 1017.5 0.0
13/07:00pm 20.7 21.3 15.3 71 3.2 ESE 6 9 3 5 1017.7 1017.4 0.0
13/06:30pm 21.9 21.8 15.0 65 4.1 ESE 9 15 5 8 1017.5 1017.2 0.0
13/06:00pm 22.8 21.4 14.6 60 4.8 ESE 15 22 8 12 1017.2 1016.9 0.0
13/05:30pm 24.0 23.6 15.2 58 5.3 E 11 22 6 12 1016.7 1016.4 0.0
13/05:00pm 24.6 23.6 14.7 54 5.9 SE 13 22 7 12 1016.6 1016.3 0.0
13/04:30pm 24.8 23.4 14.6 53 6.1 ESE 15 24 8 13 1016.2 1015.9 0.0
13/04:00pm 25.9 25.3 15.6 53 6.3 E 13 22 7 12 1016.0 1015.7 0.0
13/03:30pm 26.1 25.0 15.2 51 6.6 E 15 28 8 15 1015.9 1015.6 0.0
13/03:00pm 26.1 24.8 14.9 50 6.7 ESE 15 26 8 14 1016.0 1015.7 0.0
13/02:30pm 26.9 25.7 14.0 45 7.7 ESE 13 20 7 11 1016.0 1015.7 0.0
13/02:00pm 28.1 27.0 14.3 42 8.3 ESE 13 24 7 13 1016.1 1015.8 0.0
13/01:30pm 27.6 26.6 13.5 41 8.4 SE 11 19 6 10 1016.4 1016.1 0.0
13/01:00pm 26.5 24.2 11.8 40 8.4 SE 15 24 8 13 1016.6 1016.3 0.0
13/12:30pm 26.9 26.1 14.0 45 7.7 SE 11 22 6 12 1016.9 1016.6 0.0
13/12:00pm 27.8 27.0 16.1 49 7.2 ESE 15 26 8 14 1017.4 1017.1 0.0
13/11:30am 27.0 26.4 14.7 47 7.4 SE 11 24 6 13 1017.6 1017.3 0.0
13/11:00am 26.4 25.3 14.2 47 7.3 SE 13 24 7 13 1018.0 1017.7 0.0
13/10:30am 25.4 25.2 15.7 55 5.9 SE 11 22 6 12 1018.4 1018.1 0.0
13/10:00am 25.8 24.4 14.6 50 6.7 SE 15 24 8 13 1018.7 1018.4 0.0
13/09:30am 25.4 24.7 15.4 54 6.1 SE 13 22 7 12 1018.9 1018.6 0.0
13/09:00am 25.6 25.0 15.6 54 6.1 SSE 13 20 7 11 1018.8 1018.5 0.0
13/08:30am 24.2 24.2 16.2 61 4.9 SSE 11 19 6 10 1019.1 1018.8 0.0
13/08:00am 23.4 24.0 16.9 67 4.0 SSE 9 15 5 8 1019.2 1018.9 0.0
13/07:30am 22.0 22.5 16.5 71 3.3 SSE 9 17 5 9 1019.2 1018.9 0.0
13/07:00am 21.5 22.4 16.5 73 3.0 SE 7 13 4 7 1018.9 1018.6 0.0
13/06:30am 20.1 22.1 16.1 78 2.4 CALM 0 0 0 0 1018.8 1018.5 0.0
13/06:00am 17.9 18.8 15.2 84 1.6 SE 4 6 2 3 1018.5 1018.2 0.0
13/05:30am 15.9 17.5 14.9 94 0.6 CALM 0 0 0 0 1018.4 1018.1 0.0
13/05:00am 15.4 16.8 14.4 94 0.6 CALM 0 0 0 0 1018.2 1017.9 0.0
13/04:30am 15.7 17.0 14.2 91 0.9 CALM 0 0 0 0 1017.9 1017.6 0.0
13/04:00am 16.3 18.0 15.2 93 0.6 CALM 0 0 0 0 1017.4 1017.1 0.0
13/03:30am 16.1 17.3 14.8 92 0.7 SE 2 4 1 2 1017.5 1017.2 0.0
13/03:00am 15.4 16.6 13.9 91 0.8 CALM 0 0 0 0 1017.4 1017.1 0.0
13/02:30am 17.1 18.4 15.1 88 1.2 NE 2 6 1 3 1017.6 1017.3 0.0
13/02:00am 16.8 18.4 15.0 89 1.0 CALM 0 2 0 1 1017.6 1017.3 0.0
13/01:30am 16.1 16.8 14.6 91 0.9 N 4 6 2 3 1017.9 1017.6 0.0
13/01:00am 16.4 17.8 14.4 88 1.1 CALM 0 0 0 0 1018.2 1017.9 0.0
13/12:30am 16.9 18.5 14.9 88 1.2 CALM 0 0 0 0 1018.3 1018.0 0.0
13/12:00am 16.0 17.0 14.4 90 0.9 SSE 2 6 1 3 1018.9 1018.6 0.0
 
Date/Time
EST
Temp
°C
App
Temp
°C
Dew
Point
°C
Rel
Hum
%
Delta-T
°C
Wind Press
QNH
hPa
Press
MSL
hPa
Rain since
9am
mm
Dir  Spd
km/h
Gust
km/h
Spd
kts
Gust
kts
12/11:30pm 16.2 16.0 14.6 90 0.9 SE 9 11 5 6 1019.2 1018.9 0.0
12/11:00pm 16.0 16.3 14.4 90 0.9 SE 6 7 3 4 1019.8 1019.5 0.0
12/10:30pm 15.8 15.8 13.6 87 1.2 SE 6 7 3 4 1020.0 1019.7 0.0
12/10:00pm 17.6 19.1 14.7 83 1.7 CALM 0 0 0 0 1020.1 1019.8 0.0
12/09:30pm 17.3 18.9 14.9 86 1.4 CALM 0 4 0 2 1020.1 1019.8 0.0
12/09:00pm 16.8 17.5 14.6 87 1.3 S 4 6 2 3 1019.9 1019.6 0.0
12/08:30pm 17.9 18.8 15.2 84 1.6 S 4 6 2 3 1019.6 1019.3 0.0
12/08:00pm 18.8 19.5 14.5 76 2.5 SSE 4 6 2 3 1019.2 1018.9 0.0
12/07:30pm 19.5 20.5 14.3 72 3.0 SSE 2 4 1 2 1019.0 1018.7 0.0
12/07:00pm 20.7 20.9 14.6 68 3.6 SE 7 15 4 8 1018.9 1018.6 0.0
12/06:30pm 21.1 21.3 14.7 67 3.8 SE 7 19 4 10 1018.8 1018.5 0.0
12/06:00pm 22.3 21.2 14.4 61 4.6 SE 13 30 7 16 1018.6 1018.3 0.0
12/05:30pm 23.3 21.1 14.3 57 5.3 SE 19 32 10 17 1018.2 1017.9 0.0
12/05:00pm 24.2 22.5 14.6 55 5.7 SE 17 32 9 17 1017.7 1017.4 0.0
12/04:30pm 24.4 21.9 14.2 53 6.0 SE 20 35 11 19 1017.4 1017.1 0.0
12/04:00pm 25.3 23.1 14.4 50 6.5 SE 19 33 10 18 1017.2 1016.9 0.0
12/03:30pm 25.8 23.7 14.6 50 6.7 SE 19 33 10 18 1016.9 1016.6 0.0
12/03:00pm 25.9 23.5 13.7 47 7.2 SE 19 35 10 19 1016.9 1016.6 0.0
12/02:30pm 26.5 24.2 11.8 40 8.4 SE 15 28 8 15 1016.9 1016.6 0.0
12/02:00pm 26.6 24.0 13.3 43 7.8 SE 19 30 10 16 1017.3 1017.0 0.0
12/01:30pm 27.3 25.7 12.9 41 8.4 SSE 13 26 7 14 1017.5 1017.2 0.0
12/01:00pm 26.2 23.6 11.9 41 8.2 SE 17 28 9 15 1017.8 1017.5 0.0
12/12:30pm 26.1 23.6 12.2 42 8.0 SE 17 28 9 15 1018.1 1017.8 0.0
12/12:00pm 26.4 24.8 12.8 43 7.9 SE 13 24 7 13 1018.5 1018.2 0.0
12/11:30am 25.7 24.5 12.9 45 7.5 SE 11 20 6 11 1018.7 1018.4 0.0
12/11:00am 25.4 23.1 12.9 45 7.3 ESE 17 32 9 17 1019.3 1019.0 0.0
12/10:30am 25.0 23.3 12.6 46 7.2 SE 13 24 7 13 1019.7 1019.4 0.0
12/10:00am 25.3 23.4 11.8 43 7.7 SE 13 28 7 15 1020.0 1019.7 0.0
12/09:30am 25.3 23.5 13.2 47 7.1 SSE 15 24 8 13 1020.4 1020.2 0.0
12/09:00am 24.4 23.7 14.2 53 6.0 SSE 11 17 6 9 1020.5 1020.3 0.0
12/08:30am 22.9 22.0 13.7 56 5.4 SSE 11 22 6 12 1020.6 1020.4 0.0
12/08:00am 22.4 21.1 13.7 58 5.0 SSE 13 24 7 13 1020.4 1020.2 0.0
12/07:30am 21.7 21.7 15.1 66 3.9 SE 9 15 5 8 1020.3 1020.0 0.0
12/07:00am 20.2 21.4 16.0 77 2.5 S 4 9 2 5 1020.0 1019.7 0.0
12/06:30am 18.2 19.0 14.9 81 1.9 ESE 4 6 2 3 1020.0 1019.7 0.0
12/06:00am 16.1 17.6 14.6 91 0.9 CALM 0 0 0 0 1019.7 1019.4 0.0
12/05:30am 14.9 16.4 14.6 98 0.2 CALM 0 0 0 0 1019.3 1019.0 0.0
12/05:00am 13.9 15.0 13.6 98 0.2 CALM 0 0 0 0 1019.0 1018.7 0.0
12/04:30am 13.7 14.4 13.4 98 0.2 SE 2 4 1 2 1018.7 1018.4 0.0
12/04:00am 14.1 14.5 13.6 97 0.3 SE 4 6 2 3 1018.5 1018.2 0.0
12/03:30am 14.2 14.6 13.7 97 0.3 SE 4 6 2 3 1018.4 1018.1 0.0
12/03:00am 14.3 15.2 14.0 98 0.2 SSE 2 6 1 3 1018.4 1018.1 0.0
12/02:30am 14.1 14.4 13.5 96 0.3 SE 4 6 2 3 1018.4 1018.1 0.0
12/02:00am 14.7 15.7 14.2 97 0.3 SE 2 4 1 2 1018.4 1018.1 0.0
12/01:30am 14.8 16.1 14.0 95 0.5 CALM 0 0 0 0 1018.7 1018.4 0.0
12/01:00am 15.3 16.6 14.2 93 0.6 CALM 0 0 0 0 1019.0 1018.7 0.0
12/12:30am 15.4 16.8 14.3 93 0.6 CALM 0 0 0 0 1019.5 1019.2 0.0
12/12:00am 16.0 17.3 14.2 89 1.0 CALM 0 0 0 0 1019.8 1019.5 0.0
 
Date/Time
EST
Temp
°C
App
Temp
°C
Dew
Point
°C
Rel
Hum
%
Delta-T
°C
Wind Press
QNH
hPa
Press
MSL
hPa
Rain since
9am
mm
Dir  Spd
km/h
Gust
km/h
Spd
kts
Gust
kts
11/11:30pm 16.9 18.3 14.4 85 1.4 CALM 0 0 0 0 1020.2 1019.9 0.0
11/11:00pm 17.0 18.4 14.3 84 1.5 CALM 0 0 0 0 1020.5 1020.3 0.0
11/10:30pm 17.6 19.0 14.3 81 1.9 CALM 0 0 0 0 1020.5 1020.3 0.0
11/10:00pm 18.1 19.7 14.8 81 1.9 CALM 0 0 0 0 1020.6 1020.4 0.0
11/09:30pm 18.2 19.8 14.9 81 1.9 CALM 0 0 0 0 1020.4 1020.2 0.0

Other Formats:

Comma delimited format used in spreadsheet applications
http://www.bom.gov.au/fwo/IDQ60801/IDQ60801.94566.axf

JavaScript Object Notation format (JSON) in row-major order
http://www.bom.gov.au/fwo/IDQ60801/IDQ60801.94566.json